createdAt,value
2023-02-14T00:01:25.786Z,32.47
2023-02-14T00:03:54.723Z,31.20
2023-02-14T00:06:22.297Z,31.00
2023-02-14T00:08:52.365Z,27.55
2023-02-14T00:11:20.701Z,27.88
2023-02-14T00:14:06.777Z,28.17
2023-02-14T00:16:34.210Z,31.42
2023-02-14T00:19:04.597Z,28.42
2023-02-14T00:21:41.038Z,34.63
2023-02-14T00:24:14.262Z,31.42
2023-02-14T00:26:42.457Z,33.90
2023-02-14T00:29:13.947Z,34.08
2023-02-14T00:31:42.359Z,35.75
2023-02-14T00:34:11.278Z,33.75
2023-02-14T00:36:39.532Z,38.40
2023-02-14T00:39:10.933Z,36.30
2023-02-14T00:41:39.895Z,40.95
2023-02-14T00:44:09.793Z,39.45
2023-02-14T00:46:38.829Z,36.72
2023-02-14T00:49:06.615Z,38.85
2023-02-14T00:51:33.986Z,39.75
2023-02-14T00:54:02.065Z,36.30
2023-02-14T00:56:29.572Z,35.67
2023-02-14T00:58:57.262Z,35.35
2023-02-14T01:01:24.575Z,33.20
2023-02-14T01:03:52.190Z,34.13
2023-02-14T01:06:19.977Z,34.80
2023-02-14T01:08:47.937Z,31.17
2023-02-14T01:11:19.994Z,33.72
2023-02-14T01:13:49.839Z,34.85
2023-02-14T01:16:23.824Z,31.95
2023-02-14T01:18:52.368Z,32.22
2023-02-14T01:21:28.136Z,32.30
2023-02-14T01:23:59.852Z,30.27
2023-02-14T01:26:29.380Z,28.08
2023-02-14T01:28:57.553Z,30.33
2023-02-14T01:31:31.750Z,31.63
2023-02-14T01:34:00.626Z,32.22
2023-02-14T01:36:38.724Z,33.03
2023-02-14T01:39:13.773Z,31.48
2023-02-14T01:41:44.233Z,31.13
2023-02-14T01:44:14.834Z,31.05
2023-02-14T01:46:45.318Z,29.90
2023-02-14T01:49:18.587Z,31.75
2023-02-14T01:52:04.498Z,30.15
2023-02-14T01:54:39.000Z,31.17
2023-02-14T01:57:12.440Z,31.42
2023-02-14T01:59:51.249Z,34.05
2023-02-14T02:02:23.812Z,30.80
2023-02-14T02:04:56.056Z,29.98
2023-02-14T02:07:26.952Z,30.67
2023-02-14T02:10:00.776Z,28.33
2023-02-14T02:12:30.528Z,29.73
2023-02-14T02:15:00.542Z,27.55
2023-02-14T02:17:48.653Z,26.88
2023-02-14T02:20:31.659Z,27.13
2023-02-14T02:23:15.120Z,27.00
2023-02-14T02:26:13.682Z,27.25
2023-02-14T02:29:32.977Z,25.55
2023-02-14T02:32:27.879Z,26.17
2023-02-14T02:35:28.358Z,25.85
2023-02-14T02:38:10.822Z,23.75
2023-02-14T02:41:48.953Z,25.33
2023-02-14T02:44:44.571Z,23.75
2023-02-14T02:47:37.614Z,23.48
2023-02-14T02:51:03.551Z,23.80
2023-02-14T02:53:59.060Z,27.42
2023-02-14T02:56:47.374Z,29.52
2023-02-14T02:59:21.372Z,29.15
2023-02-14T03:02:23.040Z,29.17
2023-02-14T03:04:59.620Z,25.65
2023-02-14T03:07:39.871Z,26.05
2023-02-14T03:10:21.544Z,23.95
2023-02-14T03:13:26.116Z,25.63
2023-02-14T03:16:25.750Z,25.02
2023-02-14T03:19:36.470Z,24.90
2023-02-14T03:22:20.424Z,24.15
2023-02-14T03:25:24.661Z,26.35
2023-02-14T03:28:09.700Z,24.00
2023-02-14T03:31:07.412Z,23.52
2023-02-14T03:33:47.626Z,23.05
2023-02-14T03:36:31.883Z,25.25
2023-02-14T03:39:16.440Z,22.70
2023-02-14T03:42:10.061Z,20.83
2023-02-14T03:44:41.182Z,21.55
2023-02-14T03:47:16.630Z,22.33
2023-02-14T03:50:00.191Z,21.95
2023-02-14T03:52:30.348Z,19.60
2023-02-14T03:55:01.463Z,19.83
2023-02-14T03:58:14.661Z,20.52
2023-02-14T04:00:44.272Z,21.80
2023-02-14T04:03:15.333Z,22.70
2023-02-14T04:05:46.858Z,23.05
2023-02-14T04:08:26.360Z,23.08
2023-02-14T04:10:56.773Z,22.35
2023-02-14T04:13:24.449Z,22.92
2023-02-14T04:15:51.762Z,23.05
2023-02-14T04:18:37.832Z,23.70
2023-02-14T04:21:06.004Z,24.77
2023-02-14T04:23:33.632Z,25.90
2023-02-14T04:26:00.931Z,25.35
2023-02-14T04:28:28.547Z,24.10
2023-02-14T04:30:55.892Z,25.50
2023-02-14T04:33:24.479Z,24.42
2023-02-14T04:35:51.759Z,25.27
2023-02-14T04:38:19.288Z,28.00
2023-02-14T04:40:52.039Z,48.95
2023-02-14T04:43:20.268Z,33.05
2023-02-14T04:45:47.860Z,32.17
2023-02-14T04:48:15.588Z,27.73
2023-02-14T04:50:42.815Z,30.33
2023-02-14T04:53:10.525Z,27.17
2023-02-14T04:55:37.841Z,27.05
2023-02-14T04:58:05.512Z,28.70
2023-02-14T05:00:32.906Z,28.23
2023-02-14T05:03:00.497Z,24.48
2023-02-14T05:05:27.837Z,29.85
2023-02-14T05:07:55.421Z,27.15
2023-02-14T05:10:22.713Z,25.55
2023-02-14T05:12:50.245Z,22.25
2023-02-14T05:15:17.682Z,23.65
2023-02-14T05:17:45.174Z,25.00
2023-02-14T05:20:12.854Z,24.88
2023-02-14T05:22:40.350Z,24.08
2023-02-14T05:25:08.147Z,22.10
2023-02-14T05:27:35.668Z,21.75
2023-02-14T05:30:03.187Z,22.60
2023-02-14T05:32:30.700Z,23.45
2023-02-14T05:34:59.209Z,23.40
2023-02-14T05:37:28.469Z,21.98
2023-02-14T05:39:55.726Z,22.50
2023-02-14T05:42:23.284Z,23.10
2023-02-14T05:44:50.563Z,23.77
2023-02-14T05:47:18.199Z,23.55
2023-02-14T05:49:45.485Z,21.70
2023-02-14T05:52:13.064Z,20.65
2023-02-14T05:54:40.287Z,22.30
2023-02-14T05:57:07.964Z,22.27
2023-02-14T05:59:35.245Z,23.42
2023-02-14T06:02:02.948Z,21.13
2023-02-14T06:04:30.367Z,21.30
2023-02-14T06:06:57.975Z,25.00
2023-02-14T06:09:25.447Z,25.80
2023-02-14T06:11:55.200Z,24.08
2023-02-14T06:14:23.053Z,25.10
2023-02-14T06:16:50.800Z,27.73
2023-02-14T06:19:18.134Z,27.38
2023-02-14T06:21:45.735Z,24.80
2023-02-14T06:24:13.321Z,25.90
2023-02-14T06:26:40.847Z,23.75
2023-02-14T06:29:08.231Z,26.50
2023-02-14T06:31:36.111Z,24.10
2023-02-14T06:34:03.375Z,26.10
2023-02-14T06:36:30.881Z,23.23
2023-02-14T06:38:58.156Z,26.98
2023-02-14T06:41:25.750Z,25.70
2023-02-14T06:43:53.286Z,26.30
2023-02-14T06:46:21.422Z,25.77
2023-02-14T06:48:48.814Z,30.88
2023-02-14T06:51:16.503Z,31.15
2023-02-14T06:53:43.819Z,27.30
2023-02-14T06:56:11.442Z,25.75
2023-02-14T06:58:38.736Z,26.25
2023-02-14T07:01:06.429Z,25.38
2023-02-14T07:03:33.659Z,23.45
2023-02-14T07:06:01.394Z,23.98
2023-02-14T07:08:28.691Z,23.15
2023-02-14T07:10:58.869Z,34.95
2023-02-14T07:13:26.706Z,36.22
2023-02-14T07:15:54.591Z,26.02
2023-02-14T07:18:21.972Z,25.35
2023-02-14T07:20:51.266Z,24.13
2023-02-14T07:23:19.072Z,27.55
2023-02-14T07:25:46.669Z,24.83
2023-02-14T07:28:13.921Z,23.15
2023-02-14T07:30:41.573Z,24.70
2023-02-14T07:33:08.987Z,23.63
2023-02-14T07:35:36.665Z,22.75
2023-02-14T07:38:04.059Z,20.75
2023-02-14T07:40:31.925Z,19.90
2023-02-14T07:43:00.905Z,19.67
2023-02-14T07:45:28.564Z,21.20
2023-02-14T07:47:56.011Z,20.52
2023-02-14T07:50:24.120Z,17.80
2023-02-14T07:52:51.704Z,21.10
2023-02-14T07:55:19.516Z,19.23
2023-02-14T07:57:50.050Z,20.13
2023-02-14T08:00:18.505Z,21.65
2023-02-14T08:02:45.859Z,20.00
2023-02-14T08:05:14.961Z,21.65
2023-02-14T08:07:44.011Z,20.98
2023-02-14T08:10:13.126Z,20.00
2023-02-14T08:12:59.532Z,20.25
2023-02-14T08:15:54.321Z,21.73
2023-02-14T08:18:27.558Z,23.10
2023-02-14T08:20:55.333Z,22.40
2023-02-14T08:23:23.870Z,20.38
2023-02-14T08:25:53.252Z,21.45
2023-02-14T08:28:23.853Z,21.30
2023-02-14T08:30:52.561Z,20.67
2023-02-14T08:33:21.047Z,19.92
2023-02-14T08:35:51.680Z,20.35
2023-02-14T08:38:19.160Z,21.10
2023-02-14T08:40:46.785Z,20.08
2023-02-14T08:43:14.545Z,19.17
2023-02-14T08:45:42.266Z,18.73
2023-02-14T08:48:12.695Z,20.60
2023-02-14T08:50:43.349Z,18.52
2023-02-14T08:53:13.521Z,22.40
2023-02-14T08:55:41.636Z,42.63
2023-02-14T08:58:09.182Z,39.15
2023-02-14T09:00:36.913Z,24.30
2023-02-14T09:03:04.545Z,21.88
2023-02-14T09:05:34.223Z,19.85
2023-02-14T09:08:03.600Z,21.90
2023-02-14T09:10:31.731Z,19.08
2023-02-14T09:12:59.041Z,18.00
2023-02-14T09:15:26.752Z,17.05
2023-02-14T09:17:54.079Z,17.88
2023-02-14T09:20:21.929Z,20.65
2023-02-14T09:22:49.589Z,18.60
2023-02-14T09:25:17.616Z,16.38
2023-02-14T09:27:46.422Z,14.75
2023-02-14T09:30:15.433Z,15.27
2023-02-14T09:32:42.779Z,13.68
2023-02-14T09:35:10.395Z,14.30
2023-02-14T09:37:37.694Z,14.10
2023-02-14T09:40:06.340Z,13.43
2023-02-14T09:42:38.965Z,14.93
2023-02-14T09:45:26.963Z,12.30
2023-02-14T09:48:44.387Z,13.35
2023-02-14T09:51:21.387Z,13.52
2023-02-14T09:54:15.027Z,14.23
2023-02-14T09:57:11.469Z,12.77
2023-02-14T10:00:07.240Z,15.63
2023-02-14T10:02:46.752Z,14.80
2023-02-14T10:06:02.275Z,12.40
2023-02-14T10:08:48.454Z,12.05
2023-02-14T10:11:22.620Z,12.15
2023-02-14T10:13:57.562Z,11.93
2023-02-14T10:16:53.857Z,12.95
2023-02-14T10:19:32.157Z,13.45
2023-02-14T10:22:07.198Z,11.68
2023-02-14T10:24:51.753Z,11.38
2023-02-14T10:27:58.316Z,11.98
2023-02-14T10:30:26.220Z,13.35
2023-02-14T10:33:17.711Z,12.88
2023-02-14T10:36:19.262Z,12.35
2023-02-14T10:38:46.515Z,13.43
2023-02-14T10:41:18.070Z,14.82
2023-02-14T10:43:54.174Z,14.43
2023-02-14T10:47:16.339Z,14.43
2023-02-14T10:50:03.423Z,14.68
2023-02-14T10:52:53.422Z,12.65
2023-02-14T10:56:21.851Z,13.15
2023-02-14T10:58:53.842Z,9.93
2023-02-14T11:01:21.966Z,11.25
2023-02-14T11:04:03.838Z,10.48
2023-02-14T11:06:31.515Z,11.52
2023-02-14T11:08:59.577Z,9.65
2023-02-14T11:11:48.586Z,9.60
2023-02-14T11:14:26.547Z,8.50
2023-02-14T11:16:55.208Z,9.57
2023-02-14T11:19:31.775Z,10.05
2023-02-14T11:22:02.767Z,10.32
2023-02-14T11:24:42.318Z,9.38
2023-02-14T11:27:12.575Z,10.80
2023-02-14T11:29:53.131Z,9.40
2023-02-14T11:32:24.746Z,10.15
2023-02-14T11:34:58.082Z,12.43
2023-02-14T11:37:31.538Z,9.60
2023-02-14T11:40:02.083Z,9.48
2023-02-14T11:42:47.756Z,8.75
2023-02-14T11:45:37.536Z,8.82
2023-02-14T11:48:37.209Z,9.45
2023-02-14T11:51:14.135Z,9.95
2023-02-14T11:53:56.079Z,9.63
2023-02-14T11:56:24.752Z,8.18
2023-02-14T11:59:03.065Z,8.93
2023-02-14T12:01:38.717Z,8.70
2023-02-14T12:04:20.852Z,9.05
2023-02-14T12:06:49.038Z,10.32
2023-02-14T12:09:22.338Z,12.85
2023-02-14T12:11:58.330Z,10.10
2023-02-14T12:14:31.109Z,10.38
2023-02-14T12:17:07.471Z,10.43
2023-02-14T12:20:08.496Z,19.48
2023-02-14T12:23:10.941Z,10.52
2023-02-14T12:26:06.346Z,9.65
2023-02-14T12:28:48.296Z,8.90
2023-02-14T12:31:17.564Z,9.50
2023-02-14T12:33:46.881Z,9.15
2023-02-14T12:36:41.202Z,9.73
2023-02-14T12:39:40.848Z,9.75
2023-02-14T12:42:27.724Z,10.40
2023-02-14T12:46:04.846Z,11.20
2023-02-14T12:49:03.335Z,10.52
2023-02-14T12:51:50.575Z,9.55
2023-02-14T12:54:39.372Z,9.85
2023-02-14T12:57:30.662Z,8.88
2023-02-14T13:00:35.645Z,9.13
2023-02-14T13:03:34.972Z,11.10
2023-02-14T13:06:17.815Z,11.75
2023-02-14T13:09:44.328Z,11.52
2023-02-14T13:12:23.236Z,13.40
2023-02-14T13:15:32.883Z,13.98
2023-02-14T13:18:35.187Z,13.50
2023-02-14T13:21:09.722Z,10.48
2023-02-14T13:23:43.951Z,10.80
2023-02-14T13:26:32.571Z,13.80
2023-02-14T13:29:09.656Z,12.15
2023-02-14T13:31:39.470Z,14.82
2023-02-14T13:34:28.570Z,12.55
2023-02-14T13:36:59.419Z,15.00
2023-02-14T13:39:44.433Z,15.82
2023-02-14T13:42:13.089Z,14.90
2023-02-14T13:44:48.069Z,12.90
2023-02-14T13:47:23.237Z,12.82
2023-02-14T13:50:05.987Z,18.92
2023-02-14T13:52:54.881Z,14.23
2023-02-14T13:55:29.361Z,11.00
2023-02-14T13:58:19.298Z,9.02
2023-02-14T14:00:49.221Z,10.02
2023-02-14T14:03:43.092Z,10.88
2023-02-14T14:06:13.195Z,10.45
2023-02-14T14:08:45.203Z,12.38
2023-02-14T14:11:21.606Z,11.95
2023-02-14T14:14:02.461Z,13.85
2023-02-14T14:16:36.714Z,16.73
2023-02-14T14:19:27.024Z,18.85
2023-02-14T14:22:04.027Z,16.00
2023-02-14T14:24:38.301Z,12.27
2023-02-14T14:27:34.860Z,12.50
2023-02-14T14:30:35.387Z,14.40
2023-02-14T14:33:32.534Z,13.07
2023-02-14T14:36:02.632Z,11.43
2023-02-14T14:38:32.607Z,10.85
2023-02-14T14:41:02.182Z,10.88
2023-02-14T14:43:38.522Z,11.10
2023-02-14T14:46:13.238Z,11.07
2023-02-14T14:48:54.443Z,12.98
2023-02-14T14:51:28.980Z,13.02
2023-02-14T14:54:03.441Z,12.85
2023-02-14T14:56:47.158Z,13.25
2023-02-14T14:59:37.455Z,12.75
2023-02-14T15:02:23.527Z,12.02
2023-02-14T15:04:50.906Z,17.40
2023-02-14T15:07:34.784Z,15.77
2023-02-14T15:10:03.238Z,15.43
2023-02-14T15:12:49.975Z,15.13
2023-02-14T15:15:18.917Z,13.13
2023-02-14T15:17:48.199Z,13.23
2023-02-14T15:20:21.956Z,15.98
2023-02-14T15:22:53.186Z,14.50
2023-02-14T15:25:30.686Z,11.80
2023-02-14T15:27:58.867Z,14.05
2023-02-14T15:30:34.044Z,13.52
2023-02-14T15:33:07.767Z,15.20
2023-02-14T15:35:42.403Z,15.55
2023-02-14T15:38:13.489Z,15.65
2023-02-14T15:40:44.189Z,17.50
2023-02-14T15:43:33.336Z,16.77
2023-02-14T15:46:28.949Z,17.73
2023-02-14T15:49:01.353Z,16.35
2023-02-14T15:51:36.590Z,18.13
2023-02-14T15:54:18.225Z,16.10
2023-02-14T15:56:51.665Z,15.25
2023-02-14T15:59:19.154Z,14.90
2023-02-14T16:02:02.366Z,16.10
2023-02-14T16:04:33.990Z,13.20
2023-02-14T16:07:27.642Z,13.90
2023-02-14T16:10:25.916Z,16.27
2023-02-14T16:13:12.958Z,18.65
2023-02-14T16:16:03.516Z,18.67
2023-02-14T16:18:47.840Z,19.02
2023-02-14T16:21:33.499Z,21.05
2023-02-14T16:24:11.007Z,19.52
2023-02-14T16:26:46.909Z,17.67
2023-02-14T16:29:17.661Z,17.30
2023-02-14T16:32:14.777Z,17.00
2023-02-14T16:34:43.608Z,16.00
2023-02-14T16:37:31.714Z,19.75
2023-02-14T16:40:02.067Z,23.90
2023-02-14T16:42:29.820Z,26.73
2023-02-14T16:44:58.364Z,22.80
2023-02-14T16:47:27.971Z,20.48
2023-02-14T16:49:55.414Z,16.02
2023-02-14T16:52:28.313Z,17.30
2023-02-14T16:54:55.705Z,20.10
2023-02-14T16:57:42.980Z,16.52
2023-02-14T17:00:11.951Z,20.88
2023-02-14T17:02:39.808Z,30.13
2023-02-14T17:05:07.551Z,23.48
2023-02-14T17:07:37.546Z,27.17
2023-02-14T17:10:17.040Z,24.98
2023-02-14T17:12:48.796Z,19.63
2023-02-14T17:15:22.360Z,22.80
2023-02-14T17:17:55.813Z,30.13
2023-02-14T17:20:24.474Z,34.60
2023-02-14T17:22:52.340Z,25.85
2023-02-14T17:25:19.789Z,24.58
2023-02-14T17:27:48.321Z,24.23
2023-02-14T17:30:16.218Z,27.70
2023-02-14T17:32:44.243Z,25.48
2023-02-14T17:35:12.125Z,28.75
2023-02-14T17:37:39.930Z,24.02
2023-02-14T17:40:08.892Z,21.92
2023-02-14T17:42:37.408Z,19.90
2023-02-14T17:45:06.688Z,18.33
2023-02-14T17:47:35.279Z,15.80
2023-02-14T17:50:04.047Z,19.40
2023-02-14T17:52:32.258Z,17.80
2023-02-14T17:55:00.104Z,19.73
2023-02-14T17:57:27.766Z,19.25
2023-02-14T17:59:55.119Z,16.48
2023-02-14T18:02:22.750Z,14.95
2023-02-14T18:04:50.117Z,20.42
2023-02-14T18:07:17.715Z,25.83
2023-02-14T18:09:44.977Z,23.58
2023-02-14T18:12:37.432Z,27.35
2023-02-14T18:15:05.703Z,22.75
2023-02-14T18:17:34.945Z,30.13
2023-02-14T18:20:03.293Z,29.40
2023-02-14T18:22:31.772Z,30.73
2023-02-14T18:24:59.203Z,32.05
2023-02-14T18:27:26.892Z,31.30
2023-02-14T18:29:54.332Z,33.67
2023-02-14T18:32:21.965Z,32.70
2023-02-14T18:34:51.321Z,32.80
2023-02-14T18:37:19.214Z,31.45
2023-02-14T18:39:46.858Z,35.10
2023-02-14T18:42:14.487Z,36.78
2023-02-14T18:44:41.760Z,41.22
2023-02-14T18:47:09.526Z,44.45
2023-02-14T18:49:36.849Z,40.67
2023-02-14T18:52:05.132Z,38.78
2023-02-14T18:54:32.422Z,37.25
2023-02-14T18:57:00.220Z,37.60
2023-02-14T18:59:27.533Z,37.67
2023-02-14T19:01:55.182Z,41.78
2023-02-14T19:04:22.451Z,44.28
2023-02-14T19:06:50.105Z,42.65
2023-02-14T19:09:18.763Z,34.42
2023-02-14T19:11:46.665Z,34.88
2023-02-14T19:14:14.425Z,31.60
2023-02-14T19:16:51.244Z,27.85
2023-02-14T19:19:19.775Z,23.33
2023-02-14T19:21:47.422Z,25.17
2023-02-14T19:24:17.561Z,23.13
2023-02-14T19:26:45.653Z,18.25
2023-02-14T19:29:17.162Z,20.27
2023-02-14T19:31:52.540Z,15.98
2023-02-14T19:34:29.368Z,18.77
2023-02-14T19:37:00.609Z,14.85
2023-02-14T19:39:30.087Z,16.55
2023-02-14T19:41:58.934Z,14.95
2023-02-14T19:44:26.506Z,12.60
2023-02-14T19:46:56.497Z,13.73
2023-02-14T19:49:24.018Z,13.35
2023-02-14T19:51:51.640Z,17.92
2023-02-14T19:54:21.959Z,18.92
2023-02-14T19:56:49.624Z,17.85
2023-02-14T19:59:20.475Z,16.55
2023-02-14T20:01:55.148Z,18.20
2023-02-14T20:04:29.543Z,19.40
2023-02-14T20:06:58.081Z,17.35
2023-02-14T20:09:25.860Z,17.00
2023-02-14T20:11:56.088Z,16.90
2023-02-14T20:14:27.620Z,18.13
2023-02-14T20:16:59.078Z,21.67
2023-02-14T20:19:32.665Z,18.15
2023-02-14T20:22:01.000Z,19.85
2023-02-14T20:24:31.672Z,16.17
2023-02-14T20:27:00.629Z,14.98
2023-02-14T20:29:29.120Z,18.85
2023-02-14T20:32:01.481Z,25.02
2023-02-14T20:34:28.996Z,39.75
2023-02-14T20:36:58.605Z,44.00
2023-02-14T20:39:31.699Z,39.47
2023-02-14T20:42:00.871Z,31.60
2023-02-14T20:44:28.586Z,29.05
2023-02-14T20:46:57.398Z,31.65
2023-02-14T20:49:28.229Z,26.45
2023-02-14T20:51:56.189Z,30.77
2023-02-14T20:54:26.642Z,34.65
2023-02-14T20:56:54.295Z,29.08
2023-02-14T20:59:28.916Z,27.58
2023-02-14T21:01:59.282Z,26.25
2023-02-14T21:04:28.249Z,37.13
2023-02-14T21:06:57.940Z,34.85
2023-02-14T21:09:25.279Z,31.20
2023-02-14T21:11:54.074Z,28.80
2023-02-14T21:14:21.925Z,28.48
2023-02-14T21:16:49.677Z,31.40
2023-02-14T21:19:17.716Z,27.40
2023-02-14T21:21:45.773Z,25.67
2023-02-14T21:24:16.236Z,27.13
2023-02-14T21:26:44.957Z,26.50
2023-02-14T21:29:12.269Z,23.90
2023-02-14T21:31:40.015Z,23.45
2023-02-14T21:34:07.359Z,24.98
2023-02-14T21:36:36.064Z,23.55
2023-02-14T21:39:04.965Z,21.58
2023-02-14T21:41:34.302Z,26.83
2023-02-14T21:44:03.219Z,25.73
2023-02-14T21:46:36.286Z,24.92
2023-02-14T21:49:24.556Z,26.75
2023-02-14T21:51:52.262Z,22.40
2023-02-14T21:54:19.675Z,22.38
2023-02-14T21:56:49.307Z,22.17
2023-02-14T21:59:16.643Z,20.75
2023-02-14T22:01:44.540Z,20.70
2023-02-14T22:04:13.050Z,24.05
2023-02-14T22:06:42.591Z,21.25
2023-02-14T22:09:13.868Z,22.38
2023-02-14T22:11:42.233Z,19.70
2023-02-14T22:14:09.702Z,24.02
2023-02-14T22:16:38.263Z,23.00
2023-02-14T22:19:07.582Z,21.50
2023-02-14T22:21:35.492Z,19.45
2023-02-14T22:24:03.246Z,20.77
2023-02-14T22:26:34.742Z,22.15
2023-02-14T22:29:03.387Z,22.50
2023-02-14T22:31:37.850Z,19.67
2023-02-14T22:34:07.793Z,22.90
2023-02-14T22:36:35.966Z,21.85
2023-02-14T22:39:04.554Z,20.55
2023-02-14T22:41:37.760Z,19.38
2023-02-14T22:44:06.568Z,19.35
2023-02-14T22:46:38.781Z,18.17
2023-02-14T22:49:07.803Z,14.88
2023-02-14T22:51:39.616Z,15.85
2023-02-14T22:54:14.672Z,18.65
2023-02-14T22:56:46.690Z,16.90
2023-02-14T22:59:17.062Z,18.45
2023-02-14T23:01:45.798Z,17.95
2023-02-14T23:04:13.709Z,20.20
2023-02-14T23:06:41.430Z,19.38
2023-02-14T23:09:11.031Z,18.10
2023-02-14T23:11:40.896Z,18.45
2023-02-14T23:14:29.239Z,14.82
2023-02-14T23:17:15.077Z,15.30
2023-02-14T23:20:02.697Z,15.25
2023-02-14T23:22:35.216Z,20.02
2023-02-14T23:25:07.097Z,18.45
2023-02-14T23:27:43.040Z,16.65
2023-02-14T23:30:15.957Z,16.48
2023-02-14T23:32:43.724Z,12.90
2023-02-14T23:35:11.749Z,17.65
2023-02-14T23:37:39.380Z,17.42
2023-02-14T23:40:07.709Z,18.67
2023-02-14T23:42:35.337Z,20.00
2023-02-14T23:45:21.113Z,17.67
2023-02-14T23:47:49.123Z,19.23
2023-02-14T23:50:16.584Z,18.63
2023-02-14T23:52:44.702Z,16.30
2023-02-14T23:55:12.472Z,13.65
2023-02-14T23:57:40.581Z,16.90
